コペンハーゲン の空港の天気 - METARとTAF

コペンハーゲン国際空港 ( EKCH / CPH ) - デンマーク コペンハーゲン
飛行場実況気象(Metar)
観測時間12/14 07:20 CET (12/14 06:20 UTC)
風向・風速東北東 6m/s
視程10km以上
天気現象
少しの雲 雲底高度 370m
全天を覆う雲 雲底高度 1580m
気温2℃
湿度87%
気圧1028hPa
METAREKCH 140620Z 06012KT 9999 FEW012 OVC052 02/00 Q1028 NOSIG
過去の天気等 Google飛行場航空写真 Wunderground天気予報

過去48時間のMETAR

飛行場予報(TAF)
発表時間: 12/14 06:10 CET (12/14 05:10 UTC)
予報対象時間: 14日7時 CET ~ 15日7時 CET
風向・風速東北東 6m/s
視程10km以上
全天の4割程度の雲 雲底高度 460m
全天の8割程度の雲 雲底高度 1070m
14日7時 CET ~ 15日7時 CET に一時的に
天気現象弱いしゅう雨雪
全天の8割程度の雲 雲底高度 370m
TAF EKCH 140510Z 1406/1506 06012KT 9999 SCT015 BKN035
TEMPO 1406/1506 -SHRASN BKN012